Time;durP1;ratioP1;P1;durP2;ratioP2;P2;SDS_P1;SDS_P2;PMS_P1;PMS_P2;Temp;Humidity;BMP_temperature;BMP_pressure;BME280_temperature;BME280_humidity;BME280_pressure;Samples;Min_cycle;Max_cycle;Signal;HPM_P1;HPM_P2
2021/07/10 00:04:12;;;;;;;9.63;4.05;;;27.10;34.10;;;;;;20915193;28;20523;-64
2021/07/10 00:14:14;;;;;;;6.63;2.70;;;27.10;34.60;;;;;;20898688;28;20099;-73
2021/07/10 00:24:16;;;;;;;7.97;2.13;;;27.00;35.20;;;;;;20833078;28;20049;-71
2021/07/10 00:34:18;;;;;;;7.22;2.00;;;27.00;35.50;;;;;;20920147;28;20103;-62
2021/07/10 00:44:20;;;;;;;7.10;2.08;;;26.90;35.80;;;;;;20931588;28;20135;-71
2021/07/10 00:54:22;;;;;;;6.68;2.33;;;26.90;36.20;;;;;;20931168;28;20481;-70
2021/07/10 01:04:24;;;;;;;6.75;2.13;;;26.70;36.50;;;;;;20929101;28;20045;-67
2021/07/10 01:14:25;;;;;;;6.95;2.30;;;26.70;36.80;;;;;;20927964;28;20049;-62
2021/07/10 01:24:28;;;;;;;6.07;2.25;;;26.60;36.50;;;;;;20926428;28;20056;-61
2021/07/10 01:34:33;;;;;;;5.10;1.80;;;26.60;36.40;;;;;;20925820;28;20090;-62
2021/07/10 01:44:37;;;;;;;5.60;1.70;;;26.50;36.60;;;;;;20924142;28;20362;-69
2021/07/10 01:54:39;;;;;;;5.05;1.63;;;26.40;36.90;;;;;;20925767;28;20049;-61
2021/07/10 02:04:46;;;;;;;5.68;1.75;;;26.30;37.20;;;;;;20923404;28;20053;-63
2021/07/10 02:14:51;;;;;;;9.05;2.47;;;26.20;37.30;;;;;;20922854;28;20497;-65
2021/07/10 02:24:56;;;;;;;2.83;1.23;;;26.00;37.50;;;;;;20921412;28;20099;-63
2021/07/10 02:34:58;;;;;;;5.28;1.63;;;25.90;37.70;;;;;;20921470;28;20045;-70
2021/07/10 02:45:04;;;;;;;3.65;1.60;;;25.80;38.00;;;;;;20926338;28;20505;-61
2021/07/10 02:55:08;;;;;;;4.95;1.63;;;25.60;38.20;;;;;;20934414;28;20465;-63
2021/07/10 03:05:10;;;;;;;6.30;3.20;;;25.50;38.90;;;;;;20919522;28;20045;-66
2021/07/10 03:15:16;;;;;;;7.25;3.00;;;25.20;39.50;;;;;;20919424;28;20056;-65
2021/07/10 03:25:18;;;;;;;6.00;3.22;;;24.70;40.10;;;;;;20918197;28;20057;-65
2021/07/10 03:35:22;;;;;;;5.85;2.95;;;24.50;40.70;;;;;;20917547;28;20048;-69
2021/07/10 03:45:26;;;;;;;9.38;2.90;;;24.20;41.20;;;;;;20917234;28;20045;-69
2021/07/10 03:55:39;;;;;;;4.53;3.08;;;23.90;41.70;;;;;;20916548;28;20056;-70
2021/07/10 04:05:45;;;;;;;6.35;3.35;;;23.90;42.10;;;;;;20898768;28;20053;-69
2021/07/10 04:15:52;;;;;;;7.32;2.97;;;23.70;42.40;;;;;;20916790;28;20060;-62
2021/07/10 04:25:59;;;;;;;8.35;2.75;;;23.70;42.60;;;;;;20943446;28;20095;-67
2021/07/10 04:36:08;;;;;;;6.82;3.00;;;23.70;43.00;;;;;;20931537;28;20053;-63
2021/07/10 04:46:16;;;;;;;9.07;3.97;;;23.70;43.40;;;;;;20914356;28;20095;-62
2021/07/10 04:56:30;;;;;;;6.45;2.78;;;23.70;43.80;;;;;;20913551;28;20489;-62
2021/07/10 05:06:33;;;;;;;7.28;4.38;;;23.90;44.40;;;;;;20911344;28;20052;-61
2021/07/10 05:16:35;;;;;;;6.95;3.42;;;23.90;45.10;;;;;;20910685;28;20053;-67
2021/07/10 05:26:38;;;;;;;5.85;3.30;;;23.90;45.60;;;;;;20925003;28;20539;-69
2021/07/10 05:36:41;;;;;;;8.38;2.90;;;24.00;45.80;;;;;;20924466;28;20051;-60
2021/07/10 05:46:43;;;;;;;7.28;2.45;;;24.10;46.30;;;;;;20924249;28;20155;-69
2021/07/10 05:56:45;;;;;;;;;;;24.20;47.90;;;;;;20923725;28;20055;-70
2021/07/10 06:06:47;;;;;;;8.43;2.40;;;24.20;48.00;;;;;;20924058;28;19921;-70
2021/07/10 06:16:51;;;;;;;6.55;2.28;;;24.40;48.40;;;;;;20922073;28;20060;-69
2021/07/10 06:26:55;;;;;;;7.05;2.05;;;24.40;47.50;;;;;;20921742;28;20049;-64
2021/07/10 06:36:57;;;;;;;5.47;2.47;;;24.50;46.90;;;;;;20903299;28;20114;-61
2021/07/10 06:46:58;;;;;;;10.05;2.42;;;24.60;46.90;;;;;;20920636;28;20124;-68
2021/07/10 06:57:00;;;;;;;7.43;2.47;;;24.80;47.70;;;;;;20919548;28;20049;-63
2021/07/10 07:07:02;;;;;;;;;;;25.10;48.10;;;;;;20919956;28;20103;-61
2021/07/10 07:17:05;;;;;;;5.80;2.00;;;25.60;47.20;;;;;;20918392;28;19932;-71
2021/07/10 07:27:08;;;;;;;6.05;2.25;;;26.20;45.80;;;;;;20918511;28;20124;-63
2021/07/10 07:37:11;;;;;;;7.53;2.47;;;26.80;44.40;;;;;;20918113;28;20044;-62
2021/07/10 07:47:17;;;;;;;9.18;2.90;;;27.40;43.40;;;;;;20917358;28;20147;-62
2021/07/10 07:57:18;;;;;;;7.68;2.55;;;27.90;42.20;;;;;;20916287;28;20080;-60
2021/07/10 08:07:22;;;;;;;6.72;2.28;;;28.40;41.10;;;;;;20914948;28;20532;-68
2021/07/10 08:17:24;;;;;;;8.07;2.65;;;28.70;40.40;;;;;;20912460;28;20106;-66
2021/07/10 08:27:26;;;;;;;7.05;2.78;;;29.10;39.70;;;;;;20894023;28;20059;-62
2021/07/10 08:37:30;;;;;;;9.02;2.92;;;29.20;39.30;;;;;;20911657;28;20056;-71
2021/07/10 08:47:37;;;;;;;7.70;2.28;;;29.30;38.80;;;;;;20911682;28;20060;-62
2021/07/10 08:57:39;;;;;;;6.82;2.90;;;29.60;38.50;;;;;;20919814;28;20095;-62
2021/07/10 09:08:09;;;;;;;8.20;2.35;;;30.10;38.00;;;;;;20928281;28;20500;-62
2021/07/10 09:18:13;;;;;;;8.02;2.00;;;30.20;37.30;;;;;;20927493;28;20056;-60
2021/07/10 09:28:15;;;;;;;10.73;2.20;;;30.40;37.10;;;;;;20930233;28;20053;-68
2021/07/10 09:38:27;;;;;;;9.48;3.17;;;30.70;36.70;;;;;;20928537;28;20048;-72
2021/07/10 09:48:34;;;;;;;6.65;2.28;;;30.60;36.60;;;;;;20939522;28;20041;-68
2021/07/10 09:58:38;;;;;;;6.80;2.45;;;31.00;36.20;;;;;;20942400;28;20056;-61
2021/07/10 10:08:44;;;;;;;8.07;2.47;;;31.10;35.80;;;;;;20908779;28;20053;-71
2021/07/10 10:18:46;;;;;;;5.13;2.05;;;31.40;35.30;;;;;;20814916;28;20061;-65
2021/07/10 10:28:49;;;;;;;7.63;2.42;;;31.50;34.80;;;;;;20756330;28;20042;-64
2021/07/10 10:38:52;;;;;;;7.03;1.85;;;31.40;34.80;;;;;;20755528;28;20041;-71
2021/07/10 10:48:55;;;;;;;7.88;3.05;;;31.40;34.70;;;;;;20754789;28;20041;-63
2021/07/10 10:58:58;;;;;;;8.10;2.55;;;31.40;34.70;;;;;;20753556;28;20053;-61
2021/07/10 11:09:00;;;;;;;7.63;2.40;;;31.50;34.70;;;;;;20753583;28;20042;-65
2021/07/10 11:19:06;;;;;;;6.60;2.35;;;31.60;34.30;;;;;;20751681;28;20054;-63
2021/07/10 11:29:18;;;;;;;5.15;2.28;;;31.80;33.80;;;;;;20752168;28;20088;-66
2021/07/10 11:39:32;;;;;;;7.93;2.38;;;31.90;34.00;;;;;;20751307;28;20060;-63
2021/07/10 11:49:39;;;;;;;6.82;2.47;;;32.10;32.90;;;;;;20751547;28;20524;-66
2021/07/10 11:59:41;;;;;;;11.70;4.10;;;32.30;32.50;;;;;;20750197;28;20049;-62
2021/07/10 12:09:50;;;;;;;6.97;2.83;;;32.70;30.80;;;;;;20751646;28;20042;-62
2021/07/10 12:19:53;;;;;;;5.97;2.70;;;33.10;29.10;;;;;;20747557;28;20092;-63
2021/07/10 12:29:55;;;;;;;8.50;4.45;;;33.20;28.40;;;;;;20747869;28;20046;-66
2021/07/10 12:40:09;;;;;;;11.45;5.70;;;33.40;27.80;;;;;;20747663;28;20050;-63
2021/07/10 12:50:10;;;;;;;5.57;2.63;;;33.60;27.40;;;;;;20748106;28;20046;-61
2021/07/10 13:00:14;;;;;;;12.43;7.65;;;34.00;26.70;;;;;;20746773;28;20077;-63
2021/07/10 13:10:32;;;;;;;8.35;4.97;;;34.10;26.20;;;;;;20748388;28;20046;-63
2021/07/10 13:20:35;;;;;;;3.60;2.30;;;34.30;25.30;;;;;;20748053;28;20185;-62
2021/07/10 13:30:37;;;;;;;6.20;3.85;;;34.30;25.10;;;;;;20748096;28;20061;-70
2021/07/10 13:40:39;;;;;;;3.63;2.22;;;34.60;25.10;;;;;;20750279;28;20045;-70
2021/07/10 13:51:00;;;;;;;3.72;1.80;;;34.80;24.00;;;;;;20761696;28;20061;-70
2021/07/10 14:01:01;;;;;;;7.88;4.40;;;34.70;24.10;;;;;;20761267;28;20050;-69
2021/07/10 14:11:03;;;;;;;3.45;2.28;;;35.00;24.20;;;;;;20758478;28;20054;-69
2021/07/10 14:21:05;;;;;;;4.78;2.13;;;35.10;23.20;;;;;;20757098;28;20081;-63
2021/07/10 14:31:07;;;;;;;4.47;2.20;;;35.30;21.80;;;;;;20756994;28;20045;-63
2021/07/10 14:41:08;;;;;;;3.88;2.03;;;35.40;21.90;;;;;;20755208;28;20085;-61
2021/07/10 14:51:10;;;;;;;7.70;1.83;;;35.50;21.50;;;;;;20754758;28;20073;-63
2021/07/10 15:01:11;;;;;;;4.53;2.60;;;35.80;19.50;;;;;;20754327;28;20050;-72
2021/07/10 15:11:13;;;;;;;3.67;2.25;;;35.80;20.00;;;;;;20755916;28;20056;-65
2021/07/10 15:21:14;;;;;;;5.82;3.05;;;35.90;20.40;;;;;;20753877;28;20545;-66
2021/07/10 15:31:16;;;;;;;2.78;2.20;;;35.80;21.10;;;;;;20753604;28;20045;-64
2021/07/10 15:41:17;;;;;;;5.55;2.50;;;35.80;21.50;;;;;;20752128;28;20066;-67
2021/07/10 15:51:19;;;;;;;6.80;3.58;;;36.00;21.70;;;;;;20752046;28;20482;-63
2021/07/10 16:01:20;;;;;;;8.20;3.13;;;35.90;21.90;;;;;;20748566;28;20088;-63
2021/07/10 16:11:21;;;;;;;3.97;2.60;;;35.80;22.00;;;;;;20752291;28;20046;-61
2021/07/10 16:21:23;;;;;;;9.98;5.32;;;35.70;22.60;;;;;;20748465;28;20076;-62
2021/07/10 16:31:26;;;;;;;3.45;2.63;;;35.80;22.90;;;;;;20748049;28;20129;-64
2021/07/10 16:41:28;;;;;;;4.03;2.92;;;35.80;22.40;;;;;;20747208;28;20053;-65
2021/07/10 16:51:29;;;;;;;5.00;2.65;;;35.80;22.30;;;;;;20747601;28;20387;-65
2021/07/10 17:01:31;;;;;;;9.50;2.92;;;35.90;22.10;;;;;;20746809;28;20054;-66
2021/07/10 17:11:36;;;;;;;6.20;3.03;;;36.10;21.00;;;;;;20748570;28;20108;-66
2021/07/10 17:21:37;;;;;;;4.25;2.53;;;36.40;19.90;;;;;;20761703;28;20046;-63
2021/07/10 17:31:39;;;;;;;4.32;2.40;;;36.30;20.60;;;;;;20764144;28;20081;-66
2021/07/10 17:41:41;;;;;;;3.33;2.30;;;36.10;21.00;;;;;;20762800;28;20402;-69
2021/07/10 17:51:44;;;;;;;2.58;2.20;;;35.90;21.00;;;;;;20762867;28;20532;-72
2021/07/10 18:01:46;;;;;;;3.33;2.38;;;35.70;21.40;;;;;;20761443;28;20064;-72
2021/07/10 18:11:48;;;;;;;5.50;2.40;;;35.70;21.20;;;;;;20758779;28;20053;-66
2021/07/10 18:21:50;;;;;;;3.58;2.60;;;35.60;21.20;;;;;;20755875;28;20050;-68
2021/07/10 18:31:52;;;;;;;3.65;2.50;;;35.40;21.60;;;;;;20754874;28;20502;-68
2021/07/10 18:41:54;;;;;;;4.28;2.90;;;35.30;21.40;;;;;;20754404;28;20409;-75
2021/07/10 18:51:56;;;;;;;5.38;2.90;;;35.20;21.90;;;;;;20755462;28;20066;-71
2021/07/10 19:01:57;;;;;;;3.28;2.50;;;35.00;22.30;;;;;;20755366;28;20341;-64
2021/07/10 19:11:59;;;;;;;4.78;3.30;;;34.70;22.80;;;;;;20756183;28;20050;-69
2021/07/10 19:22:01;;;;;;;5.32;3.83;;;34.60;23.20;;;;;;20768093;28;20050;-64
2021/07/10 19:32:03;;;;;;;4.60;3.60;;;34.30;23.80;;;;;;20752753;28;20100;-67
2021/07/10 19:42:05;;;;;;;5.07;2.92;;;34.00;24.00;;;;;;20750876;28;20137;-70
2021/07/10 19:52:11;;;;;;;5.10;3.13;;;33.80;23.20;;;;;;20749666;28;20168;-70
2021/07/10 20:02:15;;;;;;;5.20;3.00;;;33.50;23.50;;;;;;20749864;28;20506;-72
2021/07/10 20:12:17;;;;;;;5.10;3.20;;;33.20;23.00;;;;;;20749356;28;20049;-71
2021/07/10 20:22:18;;;;;;;5.70;3.80;;;33.00;24.40;;;;;;20770818;28;20050;-71
2021/07/10 20:32:19;;;;;;;7.03;4.78;;;32.70;24.00;;;;;;20748467;28;20395;-71
2021/07/10 20:42:22;;;;;;;6.57;4.90;;;32.50;24.80;;;;;;20748146;28;20485;-70
2021/07/10 20:52:24;;;;;;;7.25;5.22;;;32.30;24.60;;;;;;20757515;28;20465;-73
2021/07/10 21:02:27;;;;;;;11.27;7.88;;;32.10;25.30;;;;;;20764903;28;20060;-67
2021/07/10 21:12:29;;;;;;;54.65;46.35;;;31.90;25.80;;;;;;20763294;28;20081;-68
2021/07/10 21:22:31;;;;;;;19.52;12.63;;;31.60;26.70;;;;;;20762068;28;20064;-63
2021/07/10 21:32:33;;;;;;;7.78;6.53;;;31.50;27.00;;;;;;20761223;28;20054;-72
2021/07/10 21:42:34;;;;;;;8.27;6.82;;;31.20;27.80;;;;;;20760930;28;20476;-65
2021/07/10 21:52:36;;;;;;;11.65;6.30;;;31.00;28.30;;;;;;20760303;28;20453;-63
2021/07/10 22:02:41;;;;;;;8.32;6.40;;;30.80;27.50;;;;;;20759349;28;20469;-71
2021/07/10 22:12:42;;;;;;;5.22;4.25;;;30.70;27.20;;;;;;20760565;28;20151;-74
2021/07/10 22:22:46;;;;;;;5.53;4.13;;;30.60;27.00;;;;;;20758782;28;20064;-74
2021/07/10 22:32:47;;;;;;;4.68;3.67;;;30.60;26.60;;;;;;20757878;28;20056;-64
2021/07/10 22:42:49;;;;;;;6.30;4.18;;;30.50;26.40;;;;;;20758058;28;20054;-63
2021/07/10 22:52:51;;;;;;;5.68;4.35;;;30.30;26.70;;;;;;20757284;28;20050;-74
2021/07/10 23:02:53;;;;;;;5.03;3.42;;;30.20;26.70;;;;;;20756130;28;20050;-65
2021/07/10 23:12:55;;;;;;;6.07;3.90;;;30.10;26.50;;;;;;20754613;28;20049;-65
2021/07/10 23:22:57;;;;;;;6.80;3.85;;;30.10;26.50;;;;;;20753632;28;20069;-64
2021/07/10 23:43:00;;;;;;;10.50;6.65;;;29.70;28.30;;;;;;20770709;28;20052;-64
2021/07/10 23:53:04;;;;;;;9.43;5.78;;;29.50;29.90;;;;;;20753478;28;20232;-65
